sensor_id;sensor_type;location;lat;lon;timestamp;P1;durP1;ratioP1;P2;durP2;ratioP2
48014;SDS011;33780;51.034;7.120;2023-08-17T00:00:52;5.32;;;2.10;;
48014;SDS011;33780;51.034;7.120;2023-08-17T00:03:17;6.03;;;2.00;;
48014;SDS011;33780;51.034;7.120;2023-08-17T00:05:43;5.60;;;2.67;;
48014;SDS011;33780;51.034;7.120;2023-08-17T00:08:08;4.15;;;2.10;;
48014;SDS011;33780;51.034;7.120;2023-08-17T00:10:34;3.78;;;2.22;;
48014;SDS011;33780;51.034;7.120;2023-08-17T00:12:59;4.88;;;2.17;;
48014;SDS011;33780;51.034;7.120;2023-08-17T00:15:25;5.32;;;2.10;;
48014;SDS011;33780;51.034;7.120;2023-08-17T00:17:50;2.58;;;1.70;;
48014;SDS011;33780;51.034;7.120;2023-08-17T00:20:15;4.70;;;2.17;;
48014;SDS011;33780;51.034;7.120;2023-08-17T00:22:41;9.77;;;2.13;;
48014;SDS011;33780;51.034;7.120;2023-08-17T00:25:07;4.10;;;1.85;;
48014;SDS011;33780;51.034;7.120;2023-08-17T00:27:32;5.43;;;2.63;;
48014;SDS011;33780;51.034;7.120;2023-08-17T00:29:58;4.35;;;1.88;;
48014;SDS011;33780;51.034;7.120;2023-08-17T00:32:23;5.22;;;1.67;;
48014;SDS011;33780;51.034;7.120;2023-08-17T00:34:48;3.78;;;1.98;;
48014;SDS011;33780;51.034;7.120;2023-08-17T00:37:14;5.00;;;2.00;;
48014;SDS011;33780;51.034;7.120;2023-08-17T00:39:39;3.30;;;1.90;;
48014;SDS011;33780;51.034;7.120;2023-08-17T00:42:04;4.82;;;2.10;;
48014;SDS011;33780;51.034;7.120;2023-08-17T00:44:29;3.75;;;2.10;;
48014;SDS011;33780;51.034;7.120;2023-08-17T00:46:55;4.43;;;1.92;;
48014;SDS011;33780;51.034;7.120;2023-08-17T00:49:21;3.45;;;2.03;;
48014;SDS011;33780;51.034;7.120;2023-08-17T00:51:46;2.92;;;1.75;;
48014;SDS011;33780;51.034;7.120;2023-08-17T00:54:12;5.15;;;2.05;;
48014;SDS011;33780;51.034;7.120;2023-08-17T00:56:37;5.05;;;1.90;;
48014;SDS011;33780;51.034;7.120;2023-08-17T00:59:03;4.50;;;1.90;;
48014;SDS011;33780;51.034;7.120;2023-08-17T01:01:28;3.97;;;1.95;;
48014;SDS011;33780;51.034;7.120;2023-08-17T01:03:54;3.63;;;1.70;;
48014;SDS011;33780;51.034;7.120;2023-08-17T01:06:19;2.83;;;1.80;;
48014;SDS011;33780;51.034;7.120;2023-08-17T01:08:45;5.03;;;2.00;;
48014;SDS011;33780;51.034;7.120;2023-08-17T01:13:44;3.30;;;1.98;;
48014;SDS011;33780;51.034;7.120;2023-08-17T01:16:15;2.92;;;1.77;;
48014;SDS011;33780;51.034;7.120;2023-08-17T01:18:58;4.22;;;1.70;;
48014;SDS011;33780;51.034;7.120;2023-08-17T01:21:29;3.45;;;1.83;;
48014;SDS011;33780;51.034;7.120;2023-08-17T01:24:02;3.47;;;2.10;;
48014;SDS011;33780;51.034;7.120;2023-08-17T01:26:28;2.67;;;1.75;;
48014;SDS011;33780;51.034;7.120;2023-08-17T01:28:54;3.58;;;2.17;;
48014;SDS011;33780;51.034;7.120;2023-08-17T01:31:21;3.92;;;2.13;;
48014;SDS011;33780;51.034;7.120;2023-08-17T01:33:56;3.28;;;2.00;;
48014;SDS011;33780;51.034;7.120;2023-08-17T01:36:26;5.30;;;2.00;;
48014;SDS011;33780;51.034;7.120;2023-08-17T01:39:04;3.70;;;2.20;;
48014;SDS011;33780;51.034;7.120;2023-08-17T01:41:30;3.83;;;2.25;;
48014;SDS011;33780;51.034;7.120;2023-08-17T01:43:57;3.45;;;2.08;;
48014;SDS011;33780;51.034;7.120;2023-08-17T01:46:27;3.58;;;2.38;;
48014;SDS011;33780;51.034;7.120;2023-08-17T01:48:55;5.72;;;2.30;;
48014;SDS011;33780;51.034;7.120;2023-08-17T01:51:21;2.92;;;2.10;;
48014;SDS011;33780;51.034;7.120;2023-08-17T01:53:46;4.47;;;2.08;;
48014;SDS011;33780;51.034;7.120;2023-08-17T01:56:11;2.72;;;1.88;;
48014;SDS011;33780;51.034;7.120;2023-08-17T01:58:37;4.35;;;2.17;;
48014;SDS011;33780;51.034;7.120;2023-08-17T02:01:02;3.53;;;2.10;;
48014;SDS011;33780;51.034;7.120;2023-08-17T02:03:27;3.60;;;2.00;;
48014;SDS011;33780;51.034;7.120;2023-08-17T02:05:55;3.20;;;2.10;;
48014;SDS011;33780;51.034;7.120;2023-08-17T02:08:21;3.60;;;1.77;;
48014;SDS011;33780;51.034;7.120;2023-08-17T02:10:46;3.15;;;2.05;;
48014;SDS011;33780;51.034;7.120;2023-08-17T02:13:11;3.67;;;2.25;;
48014;SDS011;33780;51.034;7.120;2023-08-17T02:15:38;3.50;;;1.75;;
48014;SDS011;33780;51.034;7.120;2023-08-17T02:18:04;3.50;;;2.08;;
48014;SDS011;33780;51.034;7.120;2023-08-17T02:20:29;4.68;;;1.80;;
48014;SDS011;33780;51.034;7.120;2023-08-17T02:22:54;6.07;;;2.08;;
48014;SDS011;33780;51.034;7.120;2023-08-17T02:25:20;2.67;;;1.65;;
48014;SDS011;33780;51.034;7.120;2023-08-17T02:27:45;4.25;;;1.90;;
48014;SDS011;33780;51.034;7.120;2023-08-17T02:30:10;3.05;;;1.98;;
48014;SDS011;33780;51.034;7.120;2023-08-17T02:32:36;3.22;;;1.80;;
48014;SDS011;33780;51.034;7.120;2023-08-17T02:35:02;2.60;;;1.63;;
48014;SDS011;33780;51.034;7.120;2023-08-17T02:37:27;2.95;;;1.83;;
48014;SDS011;33780;51.034;7.120;2023-08-17T02:39:52;3.78;;;1.80;;
48014;SDS011;33780;51.034;7.120;2023-08-17T02:42:17;2.70;;;1.80;;
48014;SDS011;33780;51.034;7.120;2023-08-17T02:44:43;3.22;;;1.90;;
48014;SDS011;33780;51.034;7.120;2023-08-17T02:47:08;4.20;;;2.00;;
48014;SDS011;33780;51.034;7.120;2023-08-17T02:49:33;3.00;;;1.90;;
48014;SDS011;33780;51.034;7.120;2023-08-17T02:51:59;3.35;;;2.08;;
48014;SDS011;33780;51.034;7.120;2023-08-17T02:54:24;3.88;;;1.90;;
48014;SDS011;33780;51.034;7.120;2023-08-17T02:56:49;4.00;;;1.88;;
48014;SDS011;33780;51.034;7.120;2023-08-17T02:59:15;3.90;;;2.03;;
48014;SDS011;33780;51.034;7.120;2023-08-17T03:01:40;2.70;;;1.88;;
48014;SDS011;33780;51.034;7.120;2023-08-17T03:04:06;4.65;;;1.85;;
48014;SDS011;33780;51.034;7.120;2023-08-17T03:06:31;3.15;;;1.75;;
48014;SDS011;33780;51.034;7.120;2023-08-17T03:08:56;2.90;;;1.90;;
48014;SDS011;33780;51.034;7.120;2023-08-17T03:11:21;2.95;;;1.83;;
48014;SDS011;33780;51.034;7.120;2023-08-17T03:13:47;3.05;;;1.60;;
48014;SDS011;33780;51.034;7.120;2023-08-17T03:16:13;3.25;;;1.88;;
48014;SDS011;33780;51.034;7.120;2023-08-17T03:18:39;3.88;;;1.90;;
48014;SDS011;33780;51.034;7.120;2023-08-17T03:21:04;4.18;;;1.83;;
48014;SDS011;33780;51.034;7.120;2023-08-17T03:23:30;2.90;;;1.80;;
48014;SDS011;33780;51.034;7.120;2023-08-17T03:25:55;2.58;;;1.60;;
48014;SDS011;33780;51.034;7.120;2023-08-17T03:28:20;2.92;;;1.85;;
48014;SDS011;33780;51.034;7.120;2023-08-17T03:30:46;3.50;;;1.80;;
48014;SDS011;33780;51.034;7.120;2023-08-17T03:33:11;2.60;;;1.70;;
48014;SDS011;33780;51.034;7.120;2023-08-17T03:35:36;3.58;;;1.55;;
48014;SDS011;33780;51.034;7.120;2023-08-17T03:38:02;5.60;;;1.88;;
48014;SDS011;33780;51.034;7.120;2023-08-17T03:40:27;5.18;;;2.33;;
48014;SDS011;33780;51.034;7.120;2023-08-17T03:42:52;4.55;;;1.90;;
48014;SDS011;33780;51.034;7.120;2023-08-17T03:45:18;2.90;;;1.88;;
48014;SDS011;33780;51.034;7.120;2023-08-17T03:47:43;3.05;;;1.80;;
48014;SDS011;33780;51.034;7.120;2023-08-17T03:50:08;3.10;;;1.98;;
48014;SDS011;33780;51.034;7.120;2023-08-17T03:52:34;3.78;;;2.00;;
48014;SDS011;33780;51.034;7.120;2023-08-17T03:55:00;4.00;;;1.73;;
48014;SDS011;33780;51.034;7.120;2023-08-17T03:57:25;2.92;;;1.75;;
48014;SDS011;33780;51.034;7.120;2023-08-17T03:59:50;3.97;;;1.67;;
48014;SDS011;33780;51.034;7.120;2023-08-17T04:02:16;4.63;;;1.70;;
48014;SDS011;33780;51.034;7.120;2023-08-17T04:04:41;4.55;;;1.63;;
48014;SDS011;33780;51.034;7.120;2023-08-17T04:07:06;2.78;;;1.70;;
48014;SDS011;33780;51.034;7.120;2023-08-17T04:09:32;2.97;;;1.80;;
48014;SDS011;33780;51.034;7.120;2023-08-17T04:11:58;3.65;;;2.00;;
48014;SDS011;33780;51.034;7.120;2023-08-17T04:14:23;2.90;;;1.85;;
48014;SDS011;33780;51.034;7.120;2023-08-17T04:16:49;2.80;;;1.60;;
48014;SDS011;33780;51.034;7.120;2023-08-17T04:19:14;4.88;;;1.90;;
48014;SDS011;33780;51.034;7.120;2023-08-17T04:21:39;3.00;;;1.80;;
48014;SDS011;33780;51.034;7.120;2023-08-17T04:24:05;2.60;;;1.70;;
48014;SDS011;33780;51.034;7.120;2023-08-17T04:26:30;3.40;;;1.90;;
48014;SDS011;33780;51.034;7.120;2023-08-17T04:28:55;3.75;;;2.08;;
48014;SDS011;33780;51.034;7.120;2023-08-17T04:31:21;2.92;;;2.00;;
48014;SDS011;33780;51.034;7.120;2023-08-17T04:33:46;7.18;;;2.05;;
48014;SDS011;33780;51.034;7.120;2023-08-17T04:36:11;3.33;;;2.22;;
48014;SDS011;33780;51.034;7.120;2023-08-17T04:38:36;4.57;;;2.00;;
48014;SDS011;33780;51.034;7.120;2023-08-17T04:41:02;2.47;;;1.58;;
48014;SDS011;33780;51.034;7.120;2023-08-17T04:43:27;3.35;;;1.98;;
48014;SDS011;33780;51.034;7.120;2023-08-17T04:45:52;3.45;;;1.92;;
48014;SDS011;33780;51.034;7.120;2023-08-17T04:48:18;3.22;;;1.90;;
48014;SDS011;33780;51.034;7.120;2023-08-17T04:50:43;3.25;;;1.80;;
48014;SDS011;33780;51.034;7.120;2023-08-17T04:53:08;3.08;;;1.70;;
48014;SDS011;33780;51.034;7.120;2023-08-17T04:55:33;3.30;;;2.10;;
48014;SDS011;33780;51.034;7.120;2023-08-17T04:57:59;3.25;;;1.77;;
48014;SDS011;33780;51.034;7.120;2023-08-17T05:00:24;3.30;;;1.65;;
48014;SDS011;33780;51.034;7.120;2023-08-17T05:02:53;3.00;;;1.77;;
48014;SDS011;33780;51.034;7.120;2023-08-17T05:05:19;3.55;;;1.90;;
48014;SDS011;33780;51.034;7.120;2023-08-17T05:07:44;5.32;;;1.90;;
48014;SDS011;33780;51.034;7.120;2023-08-17T05:10:10;3.03;;;1.80;;
48014;SDS011;33780;51.034;7.120;2023-08-17T05:12:35;2.97;;;2.00;;
48014;SDS011;33780;51.034;7.120;2023-08-17T05:15:00;5.10;;;2.00;;
48014;SDS011;33780;51.034;7.120;2023-08-17T05:17:25;5.32;;;2.00;;
48014;SDS011;33780;51.034;7.120;2023-08-17T05:19:51;3.95;;;2.10;;
48014;SDS011;33780;51.034;7.120;2023-08-17T05:22:16;4.45;;;2.00;;
48014;SDS011;33780;51.034;7.120;2023-08-17T05:24:41;3.00;;;1.80;;
48014;SDS011;33780;51.034;7.120;2023-08-17T05:27:07;3.00;;;1.85;;
48014;SDS011;33780;51.034;7.120;2023-08-17T05:29:32;4.47;;;2.10;;
48014;SDS011;33780;51.034;7.120;2023-08-17T05:31:58;4.47;;;2.50;;
48014;SDS011;33780;51.034;7.120;2023-08-17T05:34:23;4.45;;;2.33;;
48014;SDS011;33780;51.034;7.120;2023-08-17T05:36:49;5.05;;;2.40;;
48014;SDS011;33780;51.034;7.120;2023-08-17T05:39:14;3.58;;;2.28;;
48014;SDS011;33780;51.034;7.120;2023-08-17T05:41:39;3.65;;;2.33;;
48014;SDS011;33780;51.034;7.120;2023-08-17T05:44:04;4.82;;;2.83;;
48014;SDS011;33780;51.034;7.120;2023-08-17T05:46:31;4.57;;;2.85;;
48014;SDS011;33780;51.034;7.120;2023-08-17T05:48:57;3.70;;;2.40;;
48014;SDS011;33780;51.034;7.120;2023-08-17T05:51:24;5.30;;;2.53;;
48014;SDS011;33780;51.034;7.120;2023-08-17T05:53:49;4.05;;;2.30;;
48014;SDS011;33780;51.034;7.120;2023-08-17T05:56:15;4.65;;;2.60;;
48014;SDS011;33780;51.034;7.120;2023-08-17T05:58:40;8.68;;;2.50;;
48014;SDS011;33780;51.034;7.120;2023-08-17T06:01:09;6.60;;;2.50;;
48014;SDS011;33780;51.034;7.120;2023-08-17T06:03:35;4.97;;;3.00;;
48014;SDS011;33780;51.034;7.120;2023-08-17T06:06:02;4.45;;;2.72;;
48014;SDS011;33780;51.034;7.120;2023-08-17T06:08:27;5.50;;;2.90;;
48014;SDS011;33780;51.034;7.120;2023-08-17T06:10:53;5.10;;;2.88;;
48014;SDS011;33780;51.034;7.120;2023-08-17T06:13:18;4.15;;;2.70;;
48014;SDS011;33780;51.034;7.120;2023-08-17T06:15:43;4.90;;;3.03;;
48014;SDS011;33780;51.034;7.120;2023-08-17T06:18:08;6.25;;;3.30;;
48014;SDS011;33780;51.034;7.120;2023-08-17T06:20:34;5.78;;;3.10;;
48014;SDS011;33780;51.034;7.120;2023-08-17T06:22:59;5.20;;;2.75;;
48014;SDS011;33780;51.034;7.120;2023-08-17T06:25:24;4.93;;;2.45;;
48014;SDS011;33780;51.034;7.120;2023-08-17T06:27:51;5.95;;;3.03;;
48014;SDS011;33780;51.034;7.120;2023-08-17T06:30:16;4.10;;;2.47;;
48014;SDS011;33780;51.034;7.120;2023-08-17T06:32:42;4.75;;;2.63;;
48014;SDS011;33780;51.034;7.120;2023-08-17T06:35:08;5.40;;;3.08;;
48014;SDS011;33780;51.034;7.120;2023-08-17T06:37:33;5.22;;;2.70;;
48014;SDS011;33780;51.034;7.120;2023-08-17T06:39:58;4.15;;;2.33;;
48014;SDS011;33780;51.034;7.120;2023-08-17T06:42:23;6.53;;;3.08;;
48014;SDS011;33780;51.034;7.120;2023-08-17T06:44:49;6.82;;;2.88;;
48014;SDS011;33780;51.034;7.120;2023-08-17T06:47:14;7.28;;;2.95;;
48014;SDS011;33780;51.034;7.120;2023-08-17T06:49:39;5.20;;;2.90;;
48014;SDS011;33780;51.034;7.120;2023-08-17T06:52:05;7.00;;;3.20;;
48014;SDS011;33780;51.034;7.120;2023-08-17T06:54:30;6.95;;;2.58;;
48014;SDS011;33780;51.034;7.120;2023-08-17T06:56:57;5.57;;;3.03;;
48014;SDS011;33780;51.034;7.120;2023-08-17T06:59:22;8.95;;;3.22;;
48014;SDS011;33780;51.034;7.120;2023-08-17T07:01:48;4.68;;;2.65;;
48014;SDS011;33780;51.034;7.120;2023-08-17T07:04:13;6.22;;;3.03;;
48014;SDS011;33780;51.034;7.120;2023-08-17T07:06:38;5.43;;;3.17;;
48014;SDS011;33780;51.034;7.120;2023-08-17T07:09:03;6.20;;;2.75;;
48014;SDS011;33780;51.034;7.120;2023-08-17T07:11:30;6.25;;;2.85;;
48014;SDS011;33780;51.034;7.120;2023-08-17T07:13:55;6.65;;;2.97;;
48014;SDS011;33780;51.034;7.120;2023-08-17T07:16:21;7.10;;;3.05;;
48014;SDS011;33780;51.034;7.120;2023-08-17T07:18:46;5.82;;;3.08;;
48014;SDS011;33780;51.034;7.120;2023-08-17T07:21:11;5.47;;;2.88;;
48014;SDS011;33780;51.034;7.120;2023-08-17T07:23:37;6.07;;;2.70;;
48014;SDS011;33780;51.034;7.120;2023-08-17T07:26:02;5.75;;;3.00;;
48014;SDS011;33780;51.034;7.120;2023-08-17T07:28:27;5.35;;;3.28;;
48014;SDS011;33780;51.034;7.120;2023-08-17T07:30:52;5.57;;;3.30;;
48014;SDS011;33780;51.034;7.120;2023-08-17T07:33:18;5.72;;;2.83;;
48014;SDS011;33780;51.034;7.120;2023-08-17T07:35:43;5.70;;;3.35;;
48014;SDS011;33780;51.034;7.120;2023-08-17T07:38:08;5.95;;;3.42;;
48014;SDS011;33780;51.034;7.120;2023-08-17T07:40:33;6.00;;;2.70;;
48014;SDS011;33780;51.034;7.120;2023-08-17T07:42:59;5.70;;;3.22;;
48014;SDS011;33780;51.034;7.120;2023-08-17T07:45:24;7.50;;;3.35;;
48014;SDS011;33780;51.034;7.120;2023-08-17T07:47:49;5.20;;;3.03;;
48014;SDS011;33780;51.034;7.120;2023-08-17T07:50:15;6.30;;;3.13;;
48014;SDS011;33780;51.034;7.120;2023-08-17T07:52:40;4.93;;;2.90;;
48014;SDS011;33780;51.034;7.120;2023-08-17T07:55:06;4.93;;;2.72;;
48014;SDS011;33780;51.034;7.120;2023-08-17T07:57:31;7.68;;;3.20;;
48014;SDS011;33780;51.034;7.120;2023-08-17T07:59:56;6.20;;;3.47;;
48014;SDS011;33780;51.034;7.120;2023-08-17T08:02:21;6.15;;;2.97;;
48014;SDS011;33780;51.034;7.120;2023-08-17T08:04:47;6.30;;;3.10;;
48014;SDS011;33780;51.034;7.120;2023-08-17T08:07:12;7.22;;;3.08;;
48014;SDS011;33780;51.034;7.120;2023-08-17T08:09:38;4.78;;;2.50;;
48014;SDS011;33780;51.034;7.120;2023-08-17T08:12:03;6.90;;;3.33;;
48014;SDS011;33780;51.034;7.120;2023-08-17T08:14:29;5.60;;;3.08;;
48014;SDS011;33780;51.034;7.120;2023-08-17T08:16:54;5.47;;;2.95;;
48014;SDS011;33780;51.034;7.120;2023-08-17T08:19:19;7.03;;;2.75;;
48014;SDS011;33780;51.034;7.120;2023-08-17T08:21:45;5.00;;;3.10;;
48014;SDS011;33780;51.034;7.120;2023-08-17T08:24:10;4.40;;;2.80;;
48014;SDS011;33780;51.034;7.120;2023-08-17T08:26:35;5.07;;;2.83;;
48014;SDS011;33780;51.034;7.120;2023-08-17T08:29:00;7.07;;;3.20;;
48014;SDS011;33780;51.034;7.120;2023-08-17T08:31:26;5.30;;;3.15;;
48014;SDS011;33780;51.034;7.120;2023-08-17T08:33:51;5.05;;;2.92;;
48014;SDS011;33780;51.034;7.120;2023-08-17T08:36:17;5.53;;;3.05;;
48014;SDS011;33780;51.034;7.120;2023-08-17T08:38:43;7.13;;;3.00;;
48014;SDS011;33780;51.034;7.120;2023-08-17T08:41:08;5.82;;;3.03;;
48014;SDS011;33780;51.034;7.120;2023-08-17T08:43:34;5.03;;;3.00;;
48014;SDS011;33780;51.034;7.120;2023-08-17T08:46:01;8.55;;;3.13;;
48014;SDS011;33780;51.034;7.120;2023-08-17T08:48:26;6.10;;;3.05;;
48014;SDS011;33780;51.034;7.120;2023-08-17T08:50:53;5.80;;;2.88;;
48014;SDS011;33780;51.034;7.120;2023-08-17T08:53:21;6.25;;;2.72;;
48014;SDS011;33780;51.034;7.120;2023-08-17T08:55:57;5.60;;;2.95;;
48014;SDS011;33780;51.034;7.120;2023-08-17T08:58:24;6.38;;;2.90;;
48014;SDS011;33780;51.034;7.120;2023-08-17T09:00:50;4.85;;;2.90;;
48014;SDS011;33780;51.034;7.120;2023-08-17T09:03:17;5.13;;;2.88;;
48014;SDS011;33780;51.034;7.120;2023-08-17T09:05:46;5.88;;;3.53;;
48014;SDS011;33780;51.034;7.120;2023-08-17T09:08:13;5.47;;;2.90;;
48014;SDS011;33780;51.034;7.120;2023-08-17T09:10:39;7.45;;;3.10;;
48014;SDS011;33780;51.034;7.120;2023-08-17T09:13:06;9.13;;;3.17;;
48014;SDS011;33780;51.034;7.120;2023-08-17T09:15:31;5.13;;;2.75;;
48014;SDS011;33780;51.034;7.120;2023-08-17T09:17:56;5.13;;;2.90;;
48014;SDS011;33780;51.034;7.120;2023-08-17T09:20:39;6.30;;;3.33;;
48014;SDS011;33780;51.034;7.120;2023-08-17T09:23:04;6.43;;;3.10;;
48014;SDS011;33780;51.034;7.120;2023-08-17T09:25:37;5.57;;;2.78;;
48014;SDS011;33780;51.034;7.120;2023-08-17T09:28:10;6.43;;;3.60;;
48014;SDS011;33780;51.034;7.120;2023-08-17T09:30:57;7.13;;;3.25;;
48014;SDS011;33780;51.034;7.120;2023-08-17T09:33:29;5.70;;;2.80;;
48014;SDS011;33780;51.034;7.120;2023-08-17T09:35:55;6.28;;;2.97;;
48014;SDS011;33780;51.034;7.120;2023-08-17T09:38:21;6.85;;;2.75;;
48014;SDS011;33780;51.034;7.120;2023-08-17T09:40:47;5.40;;;2.83;;
48014;SDS011;33780;51.034;7.120;2023-08-17T09:43:16;6.88;;;3.13;;
48014;SDS011;33780;51.034;7.120;2023-08-17T09:45:43;5.70;;;3.03;;
48014;SDS011;33780;51.034;7.120;2023-08-17T09:48:11;6.63;;;3.35;;
48014;SDS011;33780;51.034;7.120;2023-08-17T09:50:39;6.15;;;2.92;;
48014;SDS011;33780;51.034;7.120;2023-08-17T09:53:05;5.85;;;2.97;;
48014;SDS011;33780;51.034;7.120;2023-08-17T09:55:30;5.57;;;2.92;;
48014;SDS011;33780;51.034;7.120;2023-08-17T09:57:58;4.88;;;2.83;;
48014;SDS011;33780;51.034;7.120;2023-08-17T10:00:25;6.50;;;2.90;;
48014;SDS011;33780;51.034;7.120;2023-08-17T10:02:52;5.50;;;2.45;;
48014;SDS011;33780;51.034;7.120;2023-08-17T10:05:18;5.22;;;2.83;;
48014;SDS011;33780;51.034;7.120;2023-08-17T10:07:46;4.70;;;2.85;;
48014;SDS011;33780;51.034;7.120;2023-08-17T10:10:15;4.45;;;2.60;;
48014;SDS011;33780;51.034;7.120;2023-08-17T10:12:50;7.85;;;2.70;;
48014;SDS011;33780;51.034;7.120;2023-08-17T10:21:19;4.50;;;2.70;;
48014;SDS011;33780;51.034;7.120;2023-08-17T10:23:50;6.27;;;2.70;;
48014;SDS011;33780;51.034;7.120;2023-08-17T10:26:16;5.13;;;3.00;;
48014;SDS011;33780;51.034;7.120;2023-08-17T10:28:41;4.72;;;2.75;;
48014;SDS011;33780;51.034;7.120;2023-08-17T10:31:07;5.57;;;2.80;;
48014;SDS011;33780;51.034;7.120;2023-08-17T10:33:34;4.90;;;2.72;;
48014;SDS011;33780;51.034;7.120;2023-08-17T10:36:00;4.03;;;2.35;;
48014;SDS011;33780;51.034;7.120;2023-08-17T10:38:26;5.35;;;2.80;;
48014;SDS011;33780;51.034;7.120;2023-08-17T10:41:07;5.00;;;2.80;;
48014;SDS011;33780;51.034;7.120;2023-08-17T10:43:58;4.75;;;2.88;;
48014;SDS011;33780;51.034;7.120;2023-08-17T10:46:34;6.07;;;2.75;;
48014;SDS011;33780;51.034;7.120;2023-08-17T10:49:01;4.43;;;2.85;;
48014;SDS011;33780;51.034;7.120;2023-08-17T10:51:29;5.75;;;2.65;;
48014;SDS011;33780;51.034;7.120;2023-08-17T10:53:55;4.90;;;2.88;;
48014;SDS011;33780;51.034;7.120;2023-08-17T10:56:24;3.63;;;2.33;;
48014;SDS011;33780;51.034;7.120;2023-08-17T10:58:52;4.47;;;2.47;;
48014;SDS011;33780;51.034;7.120;2023-08-17T11:01:33;4.18;;;2.28;;
48014;SDS011;33780;51.034;7.120;2023-08-17T11:04:13;4.20;;;2.30;;
48014;SDS011;33780;51.034;7.120;2023-08-17T11:06:42;4.80;;;2.33;;
48014;SDS011;33780;51.034;7.120;2023-08-17T11:09:08;5.15;;;2.83;;
48014;SDS011;33780;51.034;7.120;2023-08-17T11:11:34;5.15;;;2.90;;
48014;SDS011;33780;51.034;7.120;2023-08-17T11:13:59;4.25;;;2.53;;
48014;SDS011;33780;51.034;7.120;2023-08-17T11:16:24;5.05;;;2.45;;
48014;SDS011;33780;51.034;7.120;2023-08-17T11:18:51;4.68;;;2.63;;
48014;SDS011;33780;51.034;7.120;2023-08-17T11:21:17;4.40;;;2.20;;
48014;SDS011;33780;51.034;7.120;2023-08-17T11:23:43;6.03;;;2.30;;
48014;SDS011;33780;51.034;7.120;2023-08-17T11:26:08;4.50;;;2.58;;
48014;SDS011;33780;51.034;7.120;2023-08-17T11:28:34;3.63;;;2.40;;
48014;SDS011;33780;51.034;7.120;2023-08-17T11:31:05;3.83;;;2.47;;
48014;SDS011;33780;51.034;7.120;2023-08-17T11:33:31;4.53;;;2.50;;
48014;SDS011;33780;51.034;7.120;2023-08-17T11:35:58;3.03;;;1.88;;
48014;SDS011;33780;51.034;7.120;2023-08-17T11:38:25;3.00;;;2.10;;
48014;SDS011;33780;51.034;7.120;2023-08-17T11:40:50;4.25;;;2.45;;
48014;SDS011;33780;51.034;7.120;2023-08-17T11:43:17;3.65;;;2.30;;
48014;SDS011;33780;51.034;7.120;2023-08-17T11:45:43;3.90;;;2.30;;
48014;SDS011;33780;51.034;7.120;2023-08-17T11:48:09;4.63;;;2.38;;
48014;SDS011;33780;51.034;7.120;2023-08-17T11:50:34;3.67;;;2.17;;
48014;SDS011;33780;51.034;7.120;2023-08-17T11:53:00;5.65;;;2.40;;
48014;SDS011;33780;51.034;7.120;2023-08-17T11:55:26;3.95;;;2.05;;
48014;SDS011;33780;51.034;7.120;2023-08-17T11:57:51;5.88;;;2.10;;
48014;SDS011;33780;51.034;7.120;2023-08-17T12:00:21;3.90;;;2.25;;
48014;SDS011;33780;51.034;7.120;2023-08-17T12:02:47;4.28;;;2.40;;
48014;SDS011;33780;51.034;7.120;2023-08-17T12:05:13;4.78;;;2.08;;
48014;SDS011;33780;51.034;7.120;2023-08-17T12:07:44;3.97;;;2.20;;
48014;SDS011;33780;51.034;7.120;2023-08-17T12:10:10;3.72;;;2.28;;
48014;SDS011;33780;51.034;7.120;2023-08-17T12:12:38;3.42;;;2.00;;
48014;SDS011;33780;51.034;7.120;2023-08-17T12:15:05;3.30;;;1.90;;
48014;SDS011;33780;51.034;7.120;2023-08-17T12:17:31;3.97;;;2.40;;
48014;SDS011;33780;51.034;7.120;2023-08-17T12:19:56;2.85;;;1.80;;
48014;SDS011;33780;51.034;7.120;2023-08-17T12:22:24;4.85;;;2.08;;
48014;SDS011;33780;51.034;7.120;2023-08-17T12:24:51;3.03;;;1.77;;
48014;SDS011;33780;51.034;7.120;2023-08-17T12:27:17;4.80;;;1.95;;
48014;SDS011;33780;51.034;7.120;2023-08-17T12:29:50;4.30;;;2.03;;
48014;SDS011;33780;51.034;7.120;2023-08-17T12:32:16;3.83;;;2.30;;
48014;SDS011;33780;51.034;7.120;2023-08-17T12:34:43;4.85;;;1.90;;
48014;SDS011;33780;51.034;7.120;2023-08-17T12:37:09;2.88;;;1.80;;
48014;SDS011;33780;51.034;7.120;2023-08-17T12:39:37;3.10;;;1.73;;
48014;SDS011;33780;51.034;7.120;2023-08-17T12:42:03;3.03;;;1.77;;
48014;SDS011;33780;51.034;7.120;2023-08-17T12:44:30;2.67;;;1.58;;
48014;SDS011;33780;51.034;7.120;2023-08-17T12:46:55;3.20;;;1.70;;
48014;SDS011;33780;51.034;7.120;2023-08-17T12:49:20;3.35;;;1.70;;
48014;SDS011;33780;51.034;7.120;2023-08-17T12:51:45;4.40;;;1.80;;
48014;SDS011;33780;51.034;7.120;2023-08-17T12:54:11;4.80;;;2.20;;
48014;SDS011;33780;51.034;7.120;2023-08-17T12:56:36;3.13;;;1.90;;
48014;SDS011;33780;51.034;7.120;2023-08-17T12:59:01;2.70;;;1.85;;
48014;SDS011;33780;51.034;7.120;2023-08-17T13:01:27;3.25;;;1.95;;
48014;SDS011;33780;51.034;7.120;2023-08-17T13:03:52;3.53;;;2.20;;
48014;SDS011;33780;51.034;7.120;2023-08-17T13:06:17;3.55;;;2.20;;
48014;SDS011;33780;51.034;7.120;2023-08-17T13:08:42;3.25;;;1.83;;
48014;SDS011;33780;51.034;7.120;2023-08-17T13:11:08;4.25;;;2.22;;
48014;SDS011;33780;51.034;7.120;2023-08-17T13:13:33;3.78;;;2.38;;
48014;SDS011;33780;51.034;7.120;2023-08-17T13:15:58;4.05;;;1.88;;
48014;SDS011;33780;51.034;7.120;2023-08-17T13:18:23;2.85;;;1.77;;
48014;SDS011;33780;51.034;7.120;2023-08-17T13:20:49;4.43;;;2.00;;
48014;SDS011;33780;51.034;7.120;2023-08-17T13:23:14;4.30;;;2.17;;
48014;SDS011;33780;51.034;7.120;2023-08-17T13:25:39;4.43;;;2.67;;
48014;SDS011;33780;51.034;7.120;2023-08-17T13:28:05;4.50;;;2.25;;
48014;SDS011;33780;51.034;7.120;2023-08-17T13:30:30;5.38;;;2.60;;
48014;SDS011;33780;51.034;7.120;2023-08-17T13:32:55;5.70;;;2.30;;
48014;SDS011;33780;51.034;7.120;2023-08-17T13:35:21;4.75;;;2.75;;
48014;SDS011;33780;51.034;7.120;2023-08-17T13:37:50;3.78;;;2.40;;
48014;SDS011;33780;51.034;7.120;2023-08-17T13:40:16;4.03;;;2.30;;
48014;SDS011;33780;51.034;7.120;2023-08-17T13:42:41;4.80;;;2.72;;
48014;SDS011;33780;51.034;7.120;2023-08-17T13:45:07;3.88;;;2.38;;
48014;SDS011;33780;51.034;7.120;2023-08-17T13:47:32;3.95;;;2.38;;
48014;SDS011;33780;51.034;7.120;2023-08-17T13:49:58;4.22;;;2.53;;
48014;SDS011;33780;51.034;7.120;2023-08-17T13:52:23;4.32;;;2.45;;
48014;SDS011;33780;51.034;7.120;2023-08-17T13:54:48;3.53;;;2.38;;
48014;SDS011;33780;51.034;7.120;2023-08-17T13:57:14;4.40;;;2.65;;
48014;SDS011;33780;51.034;7.120;2023-08-17T13:59:39;4.70;;;2.80;;
48014;SDS011;33780;51.034;7.120;2023-08-17T14:02:05;6.18;;;2.50;;
48014;SDS011;33780;51.034;7.120;2023-08-17T14:04:36;5.55;;;2.70;;
48014;SDS011;33780;51.034;7.120;2023-08-17T14:07:02;4.10;;;2.60;;
48014;SDS011;33780;51.034;7.120;2023-08-17T14:09:27;5.80;;;2.28;;
48014;SDS011;33780;51.034;7.120;2023-08-17T14:11:59;3.50;;;2.38;;
48014;SDS011;33780;51.034;7.120;2023-08-17T14:14:29;3.97;;;2.40;;
48014;SDS011;33780;51.034;7.120;2023-08-17T14:16:55;6.60;;;2.75;;
48014;SDS011;33780;51.034;7.120;2023-08-17T14:19:43;5.10;;;2.90;;
48014;SDS011;33780;51.034;7.120;2023-08-17T14:22:11;4.18;;;2.55;;
48014;SDS011;33780;51.034;7.120;2023-08-17T14:24:36;4.05;;;2.50;;
48014;SDS011;33780;51.034;7.120;2023-08-17T14:27:02;3.70;;;2.03;;
48014;SDS011;33780;51.034;7.120;2023-08-17T14:29:31;3.67;;;2.35;;
48014;SDS011;33780;51.034;7.120;2023-08-17T14:31:59;3.95;;;2.53;;
48014;SDS011;33780;51.034;7.120;2023-08-17T14:34:25;3.70;;;2.38;;
48014;SDS011;33780;51.034;7.120;2023-08-17T14:36:56;4.93;;;2.53;;
48014;SDS011;33780;51.034;7.120;2023-08-17T14:39:22;4.28;;;2.65;;
48014;SDS011;33780;51.034;7.120;2023-08-17T14:41:49;5.47;;;2.58;;
48014;SDS011;33780;51.034;7.120;2023-08-17T14:44:17;4.40;;;2.53;;
48014;SDS011;33780;51.034;7.120;2023-08-17T14:46:43;3.88;;;2.25;;
48014;SDS011;33780;51.034;7.120;2023-08-17T14:49:09;4.30;;;2.22;;
48014;SDS011;33780;51.034;7.120;2023-08-17T14:51:41;3.95;;;2.08;;